Papere Vagabonde
Aviosuperficie Caposile LIKI



Pista 04



Pista 22

Le immagini vengono aggiornate ogni minuto
Cliccare sull'immagine per l'ingrandimento.


METAR LIPZ

2017/04/30 06:50 LIPZ
300650Z 04007KT 010V070 CAVOK 12/07 Q1017 NOSIG

Mappa Fronti